TimeEDT,TemperatureF,Dew PointF,Humidity,Sea Level PressureIn,VisibilityMPH,Wind Direction,Wind SpeedMPH,Gust SpeedMPH,PrecipitationIn,Events,Conditions,WindDirDegrees,DateUTC
12:53 AM,59.0,43.0,55,29.93,10.0,SSW,9.2,17.3,N/A,,Overcast,210,2013-04-09 04:53:00
1:53 AM,69.1,44.1,40,29.92,10.0,SSW,6.9,-,N/A,,Clear,200,2013-04-09 05:53:00
3:53 AM,69.1,45.0,42,29.94,10.0,SW,4.6,-,N/A,,Clear,220,2013-04-09 07:53:00
4:53 AM,68.0,45.0,43,29.95,10.0,SSW,5.8,-,N/A,,Clear,210,2013-04-09 08:53:00
5:53 AM,68.0,46.0,45,29.96,10.0,SW,9.2,-,N/A,,Clear,230,2013-04-09 09:53:00
6:53 AM,66.9,46.9,49,30.00,10.0,Variable,4.6,-,N/A,,Clear,0,2013-04-09 10:53:00
7:53 AM,66.0,46.9,50,30.02,10.0,Calm,Calm,-,N/A,,Clear,0,2013-04-09 11:53:00
8:53 AM,69.1,48.9,49,30.03,10.0,Calm,Calm,-,N/A,,Clear,0,2013-04-09 12:53:00
9:53 AM,71.1,50.0,47,30.04,10.0,Variable,5.8,-,N/A,,Clear,0,2013-04-09 13:53:00
10:53 AM,73.0,52.0,48,30.04,10.0,WSW,9.2,-,N/A,,Clear,240,2013-04-09 14:53:00
12:53 PM,75.0,52.0,44,30.03,10.0,SSW,9.2,16.1,N/A,,Partly Cloudy,210,2013-04-09 16:53:00
1:53 PM,78.1,53.1,42,29.99,10.0,West,8.1,18.4,N/A,,Clear,270,2013-04-09 17:53:00
2:53 PM,79.0,51.1,38,29.97,10.0,West,12.7,18.4,N/A,,Scattered Clouds,270,2013-04-09 18:53:00
3:53 PM,80.1,50.0,35,29.95,10.0,Variable,4.6,-,N/A,,Partly Cloudy,0,2013-04-09 19:53:00
4:53 PM,81.0,51.1,35,29.92,10.0,West,10.4,-,N/A,,Clear,260,2013-04-09 20:53:00
5:53 PM,82.0,51.1,34,29.91,10.0,SW,8.1,-,N/A,,Partly Cloudy,220,2013-04-09 21:53:00
6:53 PM,81.0,48.9,33,29.91,10.0,SW,5.8,-,N/A,,Partly Cloudy,230,2013-04-09 22:53:00
7:53 PM,75.9,48.9,38,29.92,10.0,South,3.5,-,N/A,,Clear,190,2013-04-09 23:53:00
8:53 PM,71.1,50.0,47,29.93,10.0,Calm,Calm,-,N/A,,Clear,0,2013-04-10 00:53:00
9:53 PM,68.0,50.0,52,29.92,10.0,Calm,Calm,-,N/A,,Clear,0,2013-04-10 01:53:00
11:53 PM,73.0,50.0,44,29.87,10.0,SW,3.5,-,N/A,,Clear,230,2013-04-10 03:53:00